createdAt,value
2017-10-08T00:00:03.087Z,66.50
2017-10-08T00:02:37.302Z,66.90
2017-10-08T00:05:11.506Z,66.70
2017-10-08T00:07:45.038Z,66.70
2017-10-08T00:10:18.570Z,67.00
2017-10-08T00:12:52.170Z,67.10
2017-10-08T00:15:25.683Z,67.10
2017-10-08T00:17:59.211Z,67.30
2017-10-08T00:20:32.719Z,67.20
2017-10-08T00:23:07.122Z,67.30
2017-10-08T00:25:40.646Z,67.30
2017-10-08T00:28:14.290Z,67.40
2017-10-08T00:30:47.922Z,67.50
2017-10-08T00:33:21.575Z,67.50
2017-10-08T00:35:56.050Z,67.50
2017-10-08T00:38:29.783Z,67.50
2017-10-08T00:41:03.342Z,67.60
2017-10-08T00:43:36.946Z,67.70
2017-10-08T00:46:10.858Z,67.80
2017-10-08T00:48:44.490Z,68.00
2017-10-08T00:51:18.091Z,68.10
2017-10-08T00:53:51.650Z,68.20
2017-10-08T00:56:25.266Z,68.30
2017-10-08T00:58:58.858Z,68.10
2017-10-08T01:01:32.590Z,68.20
2017-10-08T01:04:06.607Z,68.40
2017-10-08T01:06:40.178Z,68.50
2017-10-08T01:09:13.762Z,68.20
2017-10-08T01:11:47.357Z,68.10
2017-10-08T01:14:20.998Z,68.10
2017-10-08T01:16:55.515Z,67.90
2017-10-08T01:19:29.854Z,68.00
2017-10-08T01:22:03.454Z,68.00
2017-10-08T01:24:37.022Z,68.10
2017-10-08T01:27:10.606Z,68.30
2017-10-08T01:29:45.066Z,67.90
2017-10-08T01:32:18.657Z,67.90
2017-10-08T01:34:53.190Z,68.00
2017-10-08T01:37:26.690Z,67.90
2017-10-08T01:40:00.254Z,68.00
2017-10-08T01:42:33.737Z,68.20
2017-10-08T01:45:07.494Z,68.40
2017-10-08T01:47:40.962Z,68.50
2017-10-08T01:50:14.689Z,68.30
2017-10-08T01:52:48.246Z,68.00
2017-10-08T01:55:21.841Z,68.20
2017-10-08T01:57:56.278Z,68.50
2017-10-08T02:00:29.817Z,68.40
2017-10-08T02:03:03.473Z,68.50
2017-10-08T02:05:37.626Z,68.60
2017-10-08T02:08:11.226Z,68.50
2017-10-08T02:10:44.726Z,68.70
2017-10-08T02:13:18.437Z,68.60
2017-10-08T02:15:52.117Z,68.70
2017-10-08T02:18:25.702Z,68.70
2017-10-08T02:20:59.329Z,68.60
2017-10-08T02:23:32.937Z,68.30
2017-10-08T02:26:06.640Z,68.20
2017-10-08T02:28:40.255Z,68.60
2017-10-08T02:31:13.846Z,68.70
2017-10-08T02:33:47.549Z,68.60
2017-10-08T02:36:21.544Z,68.80
2017-10-08T02:38:55.126Z,68.70
2017-10-08T02:41:28.753Z,68.90
2017-10-08T02:44:02.362Z,68.50
2017-10-08T02:46:36.674Z,68.60
2017-10-08T02:49:10.271Z,68.60
2017-10-08T02:51:43.825Z,68.50
2017-10-08T02:54:17.343Z,68.70
2017-10-08T02:56:50.978Z,68.90
2017-10-08T02:59:24.681Z,68.90
2017-10-08T03:01:59.064Z,68.80
2017-10-08T03:04:32.649Z,68.80
2017-10-08T03:07:06.401Z,68.90
2017-10-08T03:09:40.110Z,68.90
2017-10-08T03:12:13.752Z,69.00
2017-10-08T03:14:48.125Z,69.20
2017-10-08T03:17:21.721Z,69.20
2017-10-08T03:19:55.223Z,69.30
2017-10-08T03:22:28.673Z,69.00
2017-10-08T03:25:02.261Z,69.00
2017-10-08T03:27:35.882Z,69.10
2017-10-08T03:30:10.419Z,69.10
2017-10-08T03:32:44.145Z,69.00
2017-10-08T03:35:17.745Z,69.00
2017-10-08T03:37:51.347Z,69.20
2017-10-08T03:40:25.873Z,69.20
2017-10-08T03:42:59.464Z,69.20
2017-10-08T03:45:33.897Z,69.30
2017-10-08T03:48:07.442Z,69.30
2017-10-08T03:50:41.790Z,69.20
2017-10-08T03:53:15.366Z,69.20
2017-10-08T03:55:49.052Z,69.10
2017-10-08T03:58:22.676Z,69.20
2017-10-08T04:00:56.261Z,69.30
2017-10-08T04:03:30.032Z,69.40
2017-10-08T04:06:04.405Z,69.20
2017-10-08T04:08:38.141Z,69.20
2017-10-08T04:11:11.698Z,69.30
2017-10-08T04:13:45.321Z,69.20
2017-10-08T04:16:18.906Z,69.10
2017-10-08T04:18:53.242Z,69.50
2017-10-08T04:21:26.822Z,69.40
2017-10-08T04:24:00.566Z,69.40
2017-10-08T04:26:34.274Z,69.50
2017-10-08T04:29:07.913Z,69.60
2017-10-08T04:31:41.577Z,69.70
2017-10-08T04:34:15.387Z,70.60
2017-10-08T04:36:49.117Z,69.80
2017-10-08T04:39:22.886Z,69.80
2017-10-08T04:41:56.441Z,69.80
2017-10-08T04:44:30.089Z,69.60
2017-10-08T04:47:03.678Z,69.80
2017-10-08T04:49:37.200Z,70.20
2017-10-08T04:52:10.989Z,70.30
2017-10-08T04:54:44.802Z,70.30
2017-10-08T04:57:18.486Z,70.30
2017-10-08T04:59:52.817Z,70.40
2017-10-08T05:02:26.521Z,70.40
2017-10-08T05:05:00.088Z,70.30
2017-10-08T05:07:33.630Z,70.30
2017-10-08T05:10:07.221Z,70.40
2017-10-08T05:12:40.841Z,70.40
2017-10-08T05:15:14.386Z,70.30
2017-10-08T05:17:48.845Z,70.50
2017-10-08T05:20:22.553Z,70.50
2017-10-08T05:22:56.857Z,70.30
2017-10-08T05:25:30.986Z,70.00
2017-10-08T05:28:05.538Z,69.90
2017-10-08T05:30:39.306Z,69.70
2017-10-08T05:33:14.142Z,69.30
2017-10-08T05:35:48.670Z,69.30
2017-10-08T05:38:22.356Z,69.30
2017-10-08T05:40:55.954Z,69.30
2017-10-08T05:43:30.281Z,69.20
2017-10-08T05:46:04.185Z,68.90
2017-10-08T05:48:39.237Z,69.10
2017-10-08T05:51:13.126Z,68.90
2017-10-08T05:53:46.715Z,68.80
2017-10-08T05:56:20.333Z,68.50
2017-10-08T05:58:54.033Z,68.70
2017-10-08T06:01:27.614Z,69.00
2017-10-08T06:04:01.197Z,69.00
2017-10-08T06:06:34.938Z,69.30
2017-10-08T06:09:08.746Z,69.30
2017-10-08T06:11:42.449Z,69.50
2017-10-08T06:14:16.190Z,68.70
2017-10-08T06:16:49.948Z,69.00
2017-10-08T06:19:23.506Z,69.40
2017-10-08T06:21:57.054Z,69.40
2017-10-08T06:24:30.658Z,69.40
2017-10-08T06:27:04.961Z,69.50
2017-10-08T06:29:38.777Z,69.40
2017-10-08T06:32:12.392Z,69.40
2017-10-08T06:34:46.087Z,69.40
2017-10-08T06:37:19.758Z,69.40
2017-10-08T06:39:53.590Z,69.40
2017-10-08T06:42:27.253Z,69.50
2017-10-08T06:45:00.901Z,69.90
2017-10-08T06:47:34.690Z,69.80
2017-10-08T06:50:08.189Z,69.40
2017-10-08T06:52:42.006Z,69.20
2017-10-08T06:55:15.714Z,69.80
2017-10-08T06:57:49.309Z,70.00
2017-10-08T07:00:23.729Z,70.20
2017-10-08T07:02:57.429Z,70.10
2017-10-08T07:05:30.885Z,70.20
2017-10-08T07:08:04.633Z,69.70
2017-10-08T07:10:38.095Z,69.70
2017-10-08T07:13:11.738Z,69.40
2017-10-08T07:15:45.335Z,70.00
2017-10-08T07:18:19.033Z,69.60
2017-10-08T07:20:53.552Z,68.80
2017-10-08T07:23:27.165Z,68.70
2017-10-08T07:26:00.714Z,68.80
2017-10-08T07:28:34.361Z,68.80
2017-10-08T07:31:07.962Z,69.40
2017-10-08T07:33:41.561Z,69.00
2017-10-08T07:36:15.257Z,68.90
2017-10-08T07:38:48.974Z,68.60
2017-10-08T07:41:22.466Z,69.00
2017-10-08T07:43:56.164Z,68.80
2017-10-08T07:46:29.741Z,68.80
2017-10-08T07:49:03.349Z,68.20
2017-10-08T07:51:37.074Z,68.20
2017-10-08T07:54:10.981Z,68.10
2017-10-08T07:56:44.581Z,67.90
2017-10-08T07:59:18.165Z,67.70
2017-10-08T08:01:52.685Z,67.70
2017-10-08T08:04:26.419Z,67.60
2017-10-08T08:07:00.122Z,67.50
2017-10-08T08:09:33.818Z,67.20
2017-10-08T08:12:07.414Z,67.40
2017-10-08T08:14:41.065Z,67.10
2017-10-08T08:17:15.301Z,66.70
2017-10-08T08:19:49.005Z,66.50
2017-10-08T08:22:22.534Z,66.50
2017-10-08T08:24:56.105Z,66.90
2017-10-08T08:27:30.414Z,66.80
2017-10-08T08:30:04.053Z,66.20
2017-10-08T08:32:38.546Z,65.00
2017-10-08T08:35:12.997Z,65.40
2017-10-08T08:37:46.606Z,65.40
2017-10-08T08:40:20.278Z,65.50
2017-10-08T08:42:53.865Z,65.10
2017-10-08T08:45:27.605Z,65.60
2017-10-08T08:48:01.350Z,65.60
2017-10-08T08:50:35.010Z,65.60
2017-10-08T08:53:08.605Z,65.50
2017-10-08T08:55:42.214Z,65.60
2017-10-08T08:58:15.693Z,65.40
2017-10-08T09:00:49.210Z,64.90
2017-10-08T09:03:23.458Z,64.50
2017-10-08T09:05:56.998Z,64.30
2017-10-08T09:08:30.572Z,64.30
2017-10-08T09:11:04.302Z,64.40
2017-10-08T09:13:37.882Z,64.80
2017-10-08T09:16:11.634Z,65.10
2017-10-08T09:18:45.345Z,65.20
2017-10-08T09:21:18.989Z,64.50
2017-10-08T09:23:52.524Z,65.00
2017-10-08T09:26:26.345Z,65.20
2017-10-08T09:28:59.941Z,64.80
2017-10-08T09:31:34.236Z,64.00
2017-10-08T09:34:07.833Z,64.00
2017-10-08T09:36:41.457Z,64.50
2017-10-08T09:39:15.066Z,64.30
2017-10-08T09:41:48.665Z,64.60
2017-10-08T09:44:22.130Z,65.00
2017-10-08T09:46:55.623Z,64.70
2017-10-08T09:49:29.058Z,64.70
2017-10-08T09:52:02.757Z,64.90
2017-10-08T09:54:36.412Z,63.90
2017-10-08T09:57:10.064Z,64.40
2017-10-08T09:59:43.506Z,64.60
2017-10-08T10:02:16.947Z,64.80
2017-10-08T10:04:50.454Z,64.80
2017-10-08T10:07:24.102Z,64.60
2017-10-08T10:09:57.545Z,64.50
2017-10-08T10:12:31.142Z,64.30
2017-10-08T10:15:04.646Z,64.30
2017-10-08T10:17:38.161Z,64.70
2017-10-08T10:20:11.626Z,64.80
2017-10-08T10:22:45.150Z,64.80
2017-10-08T10:25:18.682Z,64.60
2017-10-08T10:27:52.212Z,64.90
2017-10-08T10:30:25.713Z,64.90
2017-10-08T10:32:59.233Z,66.10
2017-10-08T10:35:33.432Z,67.20
2017-10-08T10:38:06.967Z,67.20
2017-10-08T10:40:41.338Z,66.90
2017-10-08T10:43:14.854Z,66.90
2017-10-08T10:45:48.362Z,67.00
2017-10-08T10:48:21.880Z,67.40
2017-10-08T10:50:55.340Z,68.10
2017-10-08T10:53:29.010Z,69.30
2017-10-08T10:56:02.454Z,68.90
2017-10-08T10:58:36.874Z,69.30
2017-10-08T11:01:10.381Z,69.30
2017-10-08T11:03:44.018Z,70.00
2017-10-08T11:06:18.378Z,69.90
2017-10-08T11:08:51.900Z,69.90
2017-10-08T11:11:25.545Z,70.20
2017-10-08T11:13:59.194Z,70.60
2017-10-08T11:16:33.393Z,70.20
2017-10-08T11:19:06.901Z,70.10
2017-10-08T11:21:40.433Z,70.90
2017-10-08T11:24:14.049Z,71.00
2017-10-08T11:26:47.570Z,70.90
2017-10-08T11:29:21.105Z,70.40
2017-10-08T11:31:55.419Z,69.30
2017-10-08T11:34:29.113Z,69.30
2017-10-08T11:37:02.753Z,68.70
2017-10-08T11:39:36.402Z,69.40
2017-10-08T11:42:10.820Z,69.80
2017-10-08T11:44:44.342Z,69.80
2017-10-08T11:47:17.850Z,70.30
2017-10-08T11:49:51.365Z,69.60
2017-10-08T11:52:25.001Z,69.90
2017-10-08T11:54:58.544Z,70.10
2017-10-08T11:57:32.057Z,69.90
2017-10-08T12:00:05.742Z,69.30
2017-10-08T12:02:39.309Z,68.80
2017-10-08T12:05:12.986Z,69.00
2017-10-08T12:07:46.577Z,68.60
2017-10-08T12:10:20.994Z,68.60
2017-10-08T12:12:54.427Z,68.60
2017-10-08T12:15:28.089Z,68.70
2017-10-08T12:18:01.638Z,68.80
2017-10-08T12:20:35.162Z,68.20
2017-10-08T12:23:08.670Z,67.00
2017-10-08T12:25:42.194Z,67.50
2017-10-08T12:28:15.841Z,67.70
2017-10-08T12:30:49.357Z,67.80
2017-10-08T12:33:22.939Z,66.90
2017-10-08T12:35:56.553Z,66.80
2017-10-08T12:38:30.020Z,67.00
2017-10-08T12:41:03.460Z,66.90
2017-10-08T12:43:37.666Z,66.50
2017-10-08T12:46:11.169Z,66.40
2017-10-08T12:48:44.805Z,66.90
2017-10-08T12:51:19.093Z,66.90
2017-10-08T12:53:52.616Z,66.80
2017-10-08T12:56:26.167Z,67.00
2017-10-08T12:58:59.669Z,66.60
2017-10-08T13:01:33.320Z,67.10
2017-10-08T13:04:07.589Z,66.50
2017-10-08T13:06:41.109Z,66.50
2017-10-08T13:09:14.610Z,66.70
2017-10-08T13:11:48.243Z,66.90
2017-10-08T13:14:21.798Z,66.80
2017-10-08T13:16:55.317Z,66.20
2017-10-08T13:19:28.822Z,65.90
2017-10-08T13:22:03.133Z,65.40
2017-10-08T13:24:36.607Z,65.40
2017-10-08T13:27:10.227Z,65.60
2017-10-08T13:29:43.838Z,65.20
2017-10-08T13:32:17.489Z,65.10
2017-10-08T13:34:50.994Z,65.60
2017-10-08T13:37:24.646Z,66.20
2017-10-08T13:39:58.154Z,65.60
2017-10-08T13:42:31.846Z,65.80
2017-10-08T13:45:05.386Z,65.30
2017-10-08T13:47:38.929Z,65.50
2017-10-08T13:50:13.232Z,64.90
2017-10-08T13:52:46.737Z,64.90
2017-10-08T13:55:20.199Z,64.70
2017-10-08T13:57:53.829Z,64.80
2017-10-08T14:00:27.554Z,64.60
2017-10-08T14:03:01.214Z,64.60
2017-10-08T14:05:34.738Z,64.50
2017-10-08T14:08:08.331Z,64.30
2017-10-08T14:10:41.766Z,63.60
2017-10-08T14:13:16.064Z,63.70
2017-10-08T14:15:49.522Z,63.80
2017-10-08T14:18:23.178Z,63.20
2017-10-08T14:20:57.573Z,62.70
2017-10-08T14:23:31.202Z,62.70
2017-10-08T14:26:04.641Z,62.80
2017-10-08T14:28:38.181Z,62.60
2017-10-08T14:31:11.621Z,62.50
2017-10-08T14:33:45.266Z,62.20
2017-10-08T14:36:19.553Z,62.20
2017-10-08T14:38:53.204Z,62.20
2017-10-08T14:41:26.705Z,62.30
2017-10-08T14:44:00.358Z,62.60
2017-10-08T14:46:33.785Z,62.40
2017-10-08T14:49:08.214Z,62.40
2017-10-08T14:51:41.678Z,62.40
2017-10-08T14:54:15.206Z,61.90
2017-10-08T14:56:48.870Z,62.40
2017-10-08T14:59:22.390Z,62.40
2017-10-08T15:01:56.030Z,62.20
2017-10-08T15:04:30.325Z,62.20
2017-10-08T15:07:04.534Z,62.10
2017-10-08T15:09:38.065Z,62.10
2017-10-08T15:12:11.702Z,62.50
2017-10-08T15:14:45.230Z,62.30
2017-10-08T15:17:18.661Z,62.30
2017-10-08T15:19:52.315Z,62.00
2017-10-08T15:22:25.955Z,62.20
2017-10-08T15:25:00.246Z,62.20
2017-10-08T15:27:33.775Z,62.10
2017-10-08T15:30:07.306Z,61.90
2017-10-08T15:32:40.757Z,62.30
2017-10-08T15:35:15.165Z,62.00
2017-10-08T15:37:49.385Z,62.30
2017-10-08T15:40:22.913Z,62.30
2017-10-08T15:42:57.189Z,62.10
2017-10-08T15:45:34.766Z,62.10
2017-10-08T15:48:14.220Z,61.70
2017-10-08T15:50:56.543Z,62.00
2017-10-08T15:53:35.430Z,62.50
2017-10-08T15:56:13.047Z,62.50
2017-10-08T15:58:48.774Z,62.90
2017-10-08T16:01:23.188Z,62.80
2017-10-08T16:03:56.919Z,62.80
2017-10-08T16:06:31.617Z,63.40
2017-10-08T16:09:06.570Z,63.20
2017-10-08T16:11:40.760Z,63.50
2017-10-08T16:14:16.326Z,64.20
2017-10-08T16:16:50.853Z,64.80
2017-10-08T16:19:25.429Z,64.80
2017-10-08T16:21:59.026Z,64.80
2017-10-08T16:24:32.790Z,64.60
2017-10-08T16:27:06.743Z,65.20
2017-10-08T16:29:41.102Z,66.00
2017-10-08T16:32:15.663Z,66.10
2017-10-08T16:34:50.204Z,66.10
2017-10-08T16:37:23.777Z,66.80
2017-10-08T16:40:00.321Z,67.10
2017-10-08T16:42:34.918Z,67.10
2017-10-08T16:45:09.611Z,67.30
2017-10-08T16:47:44.327Z,67.20
2017-10-08T16:50:18.215Z,66.90
2017-10-08T16:52:51.888Z,67.10
2017-10-08T16:55:26.704Z,67.00
2017-10-08T16:58:02.801Z,66.70
2017-10-08T17:00:36.837Z,66.70
2017-10-08T17:03:11.422Z,66.60
2017-10-08T17:05:45.895Z,66.20
2017-10-08T17:08:19.738Z,66.50
2017-10-08T17:10:54.635Z,67.50
2017-10-08T17:13:28.460Z,67.50
2017-10-08T17:16:02.983Z,68.60
2017-10-08T17:18:37.505Z,68.80
2017-10-08T17:21:12.141Z,68.80
2017-10-08T17:23:45.898Z,68.80
2017-10-08T17:26:19.478Z,68.80
2017-10-08T17:28:53.116Z,69.40
2017-10-08T17:31:27.552Z,69.50
2017-10-08T17:34:01.049Z,69.40
2017-10-08T17:36:34.690Z,69.70
2017-10-08T17:39:08.213Z,69.70
2017-10-08T17:41:41.851Z,69.60
2017-10-08T17:44:15.502Z,69.60
2017-10-08T17:46:49.010Z,69.60
2017-10-08T17:49:22.551Z,69.50
2017-10-08T17:51:56.050Z,69.80
2017-10-08T17:54:29.698Z,69.50
2017-10-08T17:57:03.207Z,69.40
2017-10-08T17:59:36.734Z,69.30
2017-10-08T18:02:10.240Z,69.20
2017-10-08T18:04:43.784Z,69.00
2017-10-08T18:07:17.225Z,68.90
2017-10-08T18:09:50.883Z,68.50
2017-10-08T18:12:24.394Z,68.60
2017-10-08T18:14:58.088Z,67.90
2017-10-08T18:17:31.528Z,68.00
2017-10-08T18:20:05.186Z,67.90
2017-10-08T18:22:38.694Z,67.90
2017-10-08T18:25:12.218Z,67.30
2017-10-08T18:27:45.678Z,67.30
2017-10-08T18:30:19.336Z,67.20
2017-10-08T18:32:53.611Z,67.50
2017-10-08T18:35:27.957Z,67.60
2017-10-08T18:38:01.450Z,67.50
2017-10-08T18:40:35.878Z,67.70
2017-10-08T18:43:09.322Z,67.70
2017-10-08T18:45:42.828Z,67.70
2017-10-08T18:48:16.498Z,67.40
2017-10-08T18:50:50.026Z,67.70
2017-10-08T18:53:23.657Z,68.00
2017-10-08T18:55:58.079Z,67.80
2017-10-08T18:58:32.390Z,68.20
2017-10-08T19:01:05.927Z,68.20
2017-10-08T19:03:40.196Z,68.10
2017-10-08T19:06:13.734Z,68.10
2017-10-08T19:08:47.173Z,67.90
2017-10-08T19:11:20.834Z,67.80
2017-10-08T19:13:55.229Z,67.80
2017-10-08T19:16:29.562Z,67.90
2017-10-08T19:19:03.130Z,67.90
2017-10-08T19:21:36.570Z,67.70
2017-10-08T19:24:10.014Z,67.80
2017-10-08T19:26:43.529Z,68.10
2017-10-08T19:29:17.746Z,68.00
2017-10-08T19:31:51.297Z,68.00
2017-10-08T19:34:24.734Z,67.90
2017-10-08T19:36:58.381Z,67.70
2017-10-08T19:39:31.816Z,67.90
2017-10-08T19:42:05.475Z,67.60
2017-10-08T19:44:38.981Z,67.40
2017-10-08T19:47:12.657Z,67.80
2017-10-08T19:49:46.869Z,67.70
2017-10-08T19:52:20.482Z,68.30
2017-10-08T19:54:53.981Z,67.80
2017-10-08T19:57:27.684Z,67.60
2017-10-08T20:00:01.142Z,67.20
2017-10-08T20:02:34.794Z,67.20
2017-10-08T20:05:08.231Z,66.90
2017-10-08T20:07:41.758Z,67.30
2017-10-08T20:10:15.394Z,67.20
2017-10-08T20:12:49.684Z,67.10
2017-10-08T20:15:23.205Z,67.10
2017-10-08T20:17:57.594Z,66.70
2017-10-08T20:20:31.125Z,66.70
2017-10-08T20:23:04.742Z,66.80
2017-10-08T20:25:38.378Z,66.50
2017-10-08T20:28:11.900Z,66.50
2017-10-08T20:30:46.106Z,66.40
2017-10-08T20:33:19.610Z,66.40
2017-10-08T20:35:53.818Z,66.20
2017-10-08T20:38:27.413Z,66.20
2017-10-08T20:41:00.918Z,66.20
2017-10-08T20:43:34.557Z,66.40
2017-10-08T20:46:08.848Z,66.20
2017-10-08T20:48:42.364Z,66.10
2017-10-08T20:51:16.037Z,66.20
2017-10-08T20:53:49.718Z,66.10
2017-10-08T20:56:23.159Z,65.80
2017-10-08T20:58:57.382Z,65.50
2017-10-08T21:01:31.588Z,65.60
2017-10-08T21:04:05.177Z,65.60
2017-10-08T21:06:38.693Z,65.60
2017-10-08T21:09:12.351Z,65.70
2017-10-08T21:11:45.938Z,65.60
2017-10-08T21:14:19.606Z,65.30
2017-10-08T21:16:53.043Z,65.20
2017-10-08T21:19:26.698Z,65.20
2017-10-08T21:22:00.362Z,65.10
2017-10-08T21:24:33.910Z,65.00
2017-10-08T21:27:07.350Z,64.80
2017-10-08T21:29:40.927Z,65.10
2017-10-08T21:32:18.468Z,64.90
2017-10-08T21:34:52.081Z,65.10
2017-10-08T21:37:26.828Z,65.10
2017-10-08T21:40:00.534Z,65.10
2017-10-08T21:42:34.958Z,64.90
2017-10-08T21:45:08.553Z,65.00
2017-10-08T21:47:42.153Z,64.90
2017-10-08T21:50:15.853Z,64.80
2017-10-08T21:52:49.438Z,64.80
2017-10-08T21:55:23.389Z,64.40
2017-10-08T21:57:58.485Z,64.40
2017-10-08T22:00:32.102Z,64.40
2017-10-08T22:03:05.889Z,64.20
2017-10-08T22:05:40.037Z,64.40
2017-10-08T22:08:14.521Z,64.20
2017-10-08T22:10:48.141Z,64.20
2017-10-08T22:13:21.859Z,64.20
2017-10-08T22:15:55.645Z,64.00
2017-10-08T22:18:29.217Z,63.90
2017-10-08T22:21:02.838Z,63.80
2017-10-08T22:23:36.666Z,64.00
2017-10-08T22:26:10.249Z,63.80
2017-10-08T22:28:43.823Z,63.70
2017-10-08T22:31:17.468Z,63.40
2017-10-08T22:33:51.034Z,63.70
2017-10-08T22:36:24.666Z,63.70
2017-10-08T22:38:58.371Z,63.70
2017-10-08T22:41:32.174Z,63.90
2017-10-08T22:44:05.726Z,63.70
2017-10-08T22:46:39.254Z,63.60
2017-10-08T22:49:12.878Z,63.50
2017-10-08T22:51:46.349Z,63.40
2017-10-08T22:54:20.082Z,63.40
2017-10-08T22:56:53.597Z,63.30
2017-10-08T22:59:27.173Z,63.50
2017-10-08T23:02:00.878Z,63.60
2017-10-08T23:04:34.382Z,63.40
2017-10-08T23:07:08.930Z,62.90
2017-10-08T23:09:43.276Z,63.00
2017-10-08T23:12:17.001Z,63.00
2017-10-08T23:14:50.624Z,63.00
2017-10-08T23:17:24.374Z,63.10
2017-10-08T23:19:57.926Z,62.90
2017-10-08T23:22:31.637Z,62.90
2017-10-08T23:25:05.326Z,62.60
2017-10-08T23:27:38.928Z,62.30
2017-10-08T23:30:12.529Z,62.50
2017-10-08T23:32:46.133Z,62.50
2017-10-08T23:35:19.629Z,62.00
2017-10-08T23:37:53.244Z,62.00
2017-10-08T23:40:26.734Z,62.20
2017-10-08T23:43:00.225Z,61.80
2017-10-08T23:45:34.609Z,61.80
2017-10-08T23:48:08.259Z,61.80
2017-10-08T23:50:42.269Z,61.70
2017-10-08T23:53:15.866Z,61.70
2017-10-08T23:55:49.872Z,61.80
2017-10-08T23:58:23.682Z,61.90
